createdAt,value
2022-10-13T00:00:57.145Z,6.30
2022-10-13T00:03:23.723Z,6.68
2022-10-13T00:05:51.349Z,7.07
2022-10-13T00:08:21.898Z,7.13
2022-10-13T00:10:50.714Z,7.22
2022-10-13T00:13:18.647Z,7.03
2022-10-13T00:15:46.911Z,6.57
2022-10-13T00:18:13.991Z,6.85
2022-10-13T00:20:50.379Z,6.60
2022-10-13T00:23:17.570Z,8.00
2022-10-13T00:25:49.589Z,7.32
2022-10-13T00:28:18.267Z,6.85
2022-10-13T00:30:45.081Z,7.45
2022-10-13T00:33:13.285Z,7.70
2022-10-13T00:35:44.812Z,7.47
2022-10-13T00:38:11.862Z,6.90
2022-10-13T00:40:55.479Z,7.07
2022-10-13T00:43:46.734Z,8.00
2022-10-13T00:46:13.784Z,7.43
2022-10-13T00:48:41.844Z,6.85
2022-10-13T00:51:10.771Z,7.50
2022-10-13T00:53:39.667Z,5.78
2022-10-13T00:56:09.752Z,5.70
2022-10-13T00:58:39.536Z,5.70
2022-10-13T01:01:07.120Z,6.75
2022-10-13T01:03:34.053Z,5.57
2022-10-13T01:06:02.576Z,5.32
2022-10-13T01:08:29.833Z,4.85
2022-10-13T01:11:08.256Z,5.65
2022-10-13T01:13:43.976Z,5.72
2022-10-13T01:16:31.716Z,5.93
2022-10-13T01:19:13.609Z,5.55
2022-10-13T01:21:53.263Z,6.00
2022-10-13T01:24:40.395Z,5.35
2022-10-13T01:27:21.973Z,5.80
2022-10-13T01:30:00.668Z,5.80
2022-10-13T01:32:30.628Z,5.93
2022-10-13T01:35:09.023Z,5.70
2022-10-13T01:37:44.738Z,5.80
2022-10-13T01:40:14.081Z,5.53
2022-10-13T01:42:57.904Z,5.97
2022-10-13T01:45:31.204Z,5.57
2022-10-13T01:48:01.142Z,5.70
2022-10-13T01:50:28.408Z,5.97
2022-10-13T01:52:55.780Z,5.18
2022-10-13T01:55:22.407Z,5.50
2022-10-13T01:57:48.968Z,4.95
2022-10-13T02:00:18.214Z,4.63
2022-10-13T02:02:52.840Z,5.65
2022-10-13T02:05:31.891Z,5.45
2022-10-13T02:08:13.835Z,6.18
2022-10-13T02:10:47.832Z,5.28
2022-10-13T02:13:17.737Z,4.63
2022-10-13T02:15:47.956Z,4.10
2022-10-13T02:18:18.550Z,3.90
2022-10-13T02:20:46.400Z,4.90
2022-10-13T02:23:16.020Z,3.88
2022-10-13T02:25:44.401Z,3.78
2022-10-13T02:28:13.043Z,2.80
2022-10-13T02:30:41.993Z,3.45
2022-10-13T02:33:09.429Z,3.92
2022-10-13T02:35:36.053Z,3.92
2022-10-13T02:38:02.632Z,3.72
2022-10-13T02:40:29.299Z,3.30
2022-10-13T02:42:55.865Z,3.53
2022-10-13T02:45:22.720Z,4.03
2022-10-13T02:47:49.324Z,3.88
2022-10-13T02:50:15.962Z,3.80
2022-10-13T02:52:42.440Z,3.88
2022-10-13T02:55:09.497Z,4.07
2022-10-13T02:57:36.231Z,3.20
2022-10-13T03:00:04.066Z,3.15
2022-10-13T03:02:30.581Z,3.05
2022-10-13T03:04:57.180Z,3.67
2022-10-13T03:07:23.645Z,3.40
2022-10-13T03:09:50.140Z,3.42
2022-10-13T03:12:16.929Z,3.40
2022-10-13T03:14:43.642Z,3.78
2022-10-13T03:17:13.391Z,3.45
2022-10-13T03:19:40.385Z,3.70
2022-10-13T03:22:06.875Z,4.55
2022-10-13T03:24:33.337Z,4.15
2022-10-13T03:26:59.863Z,3.85
2022-10-13T03:29:26.342Z,3.80
2022-10-13T03:31:52.826Z,4.75
2022-10-13T03:34:19.506Z,4.53
2022-10-13T03:36:46.019Z,4.18
2022-10-13T03:39:12.601Z,4.38
2022-10-13T03:41:39.249Z,4.63
2022-10-13T03:44:05.887Z,5.20
2022-10-13T03:46:32.375Z,4.80
2022-10-13T03:48:58.995Z,4.60
2022-10-13T03:51:25.594Z,4.97
2022-10-13T03:53:52.668Z,5.18
2022-10-13T03:56:22.047Z,5.05
2022-10-13T03:58:49.195Z,6.28
2022-10-13T04:01:15.808Z,6.35
2022-10-13T04:03:42.335Z,5.35
2022-10-13T04:06:09.832Z,5.50
2022-10-13T04:08:36.751Z,5.13
2022-10-13T04:11:08.750Z,5.50
2022-10-13T04:13:35.287Z,7.53
2022-10-13T04:16:06.742Z,6.47
2022-10-13T04:18:34.094Z,7.38
2022-10-13T04:21:01.117Z,7.13
2022-10-13T04:23:27.591Z,6.47
2022-10-13T04:25:54.097Z,5.82
2022-10-13T04:28:20.623Z,5.30
2022-10-13T04:30:49.517Z,6.13
2022-10-13T04:33:16.733Z,6.05
2022-10-13T04:35:43.190Z,5.45
2022-10-13T04:38:09.682Z,7.25
2022-10-13T04:40:36.261Z,8.10
2022-10-13T04:43:03.251Z,8.05
2022-10-13T04:45:29.740Z,6.95
2022-10-13T04:47:56.276Z,6.63
2022-10-13T04:50:22.764Z,8.50
2022-10-13T04:52:49.269Z,7.88
2022-10-13T04:55:15.918Z,6.95
2022-10-13T04:57:42.399Z,6.70
2022-10-13T05:00:09.949Z,6.10
2022-10-13T05:02:37.798Z,6.43
2022-10-13T05:05:05.108Z,6.13
2022-10-13T05:07:32.419Z,6.18
2022-10-13T05:09:59.026Z,5.97
2022-10-13T05:12:25.547Z,4.93
2022-10-13T05:14:52.027Z,5.75
2022-10-13T05:17:18.624Z,5.55
2022-10-13T05:19:45.123Z,5.25
2022-10-13T05:22:11.607Z,5.07
2022-10-13T05:24:38.135Z,5.68
2022-10-13T05:27:10.001Z,4.40
2022-10-13T05:29:37.028Z,4.60
2022-10-13T05:32:04.567Z,3.80
2022-10-13T05:34:31.397Z,5.97
2022-10-13T05:36:58.065Z,4.43
2022-10-13T05:39:24.609Z,4.90
2022-10-13T05:41:51.074Z,4.72
2022-10-13T05:44:17.607Z,5.32
2022-10-13T05:46:44.755Z,5.82
2022-10-13T05:49:11.405Z,4.45
2022-10-13T05:51:41.694Z,4.97
2022-10-13T05:54:08.180Z,5.22
2022-10-13T05:56:41.076Z,6.20
2022-10-13T05:59:12.222Z,4.22
2022-10-13T06:01:40.485Z,6.22
2022-10-13T06:04:11.868Z,5.80
2022-10-13T06:06:38.784Z,5.88
2022-10-13T06:09:05.477Z,5.30
2022-10-13T06:11:31.984Z,5.25
2022-10-13T06:13:58.515Z,4.63
2022-10-13T06:16:25.003Z,5.18
2022-10-13T06:18:51.524Z,5.97
2022-10-13T06:21:18.105Z,5.82
2022-10-13T06:23:44.634Z,5.35
2022-10-13T06:26:11.105Z,5.57
2022-10-13T06:28:37.817Z,5.72
2022-10-13T06:31:06.172Z,4.45
2022-10-13T06:33:33.371Z,4.97
2022-10-13T06:36:05.023Z,4.28
2022-10-13T06:38:32.404Z,5.23
2022-10-13T06:41:03.590Z,4.60
2022-10-13T06:43:37.262Z,5.10
2022-10-13T06:46:05.561Z,4.75
2022-10-13T06:48:32.110Z,4.60
2022-10-13T06:51:02.988Z,4.30
2022-10-13T06:53:29.734Z,4.40
2022-10-13T06:56:01.935Z,3.78
2022-10-13T06:58:28.517Z,4.80
2022-10-13T07:00:55.717Z,4.30
2022-10-13T07:03:23.196Z,4.13
2022-10-13T07:05:49.669Z,5.90
2022-10-13T07:08:16.229Z,5.53
2022-10-13T07:10:43.105Z,5.65
2022-10-13T07:13:09.686Z,6.55
2022-10-13T07:15:40.228Z,5.30
2022-10-13T07:18:06.929Z,5.90
2022-10-13T07:20:34.801Z,6.30
2022-10-13T07:23:01.336Z,4.43
2022-10-13T07:25:27.941Z,4.97
2022-10-13T07:27:54.796Z,5.57
2022-10-13T07:30:21.774Z,4.63
2022-10-13T07:32:48.754Z,4.40
2022-10-13T07:35:15.563Z,5.43
2022-10-13T07:37:42.059Z,5.35
2022-10-13T07:40:09.275Z,4.87
2022-10-13T07:42:36.061Z,4.55
2022-10-13T07:45:02.553Z,4.22
2022-10-13T07:47:30.384Z,5.03
2022-10-13T07:49:56.827Z,4.93
2022-10-13T07:52:23.480Z,5.23
2022-10-13T07:54:50.922Z,4.95
2022-10-13T07:57:17.849Z,4.32
2022-10-13T07:59:44.357Z,5.57
2022-10-13T08:02:10.954Z,5.63
2022-10-13T08:04:37.510Z,4.60
2022-10-13T08:07:05.349Z,3.67
2022-10-13T08:09:31.981Z,3.25
2022-10-13T08:12:01.707Z,2.88
2022-10-13T08:14:29.810Z,2.95
2022-10-13T08:16:57.668Z,3.10
2022-10-13T08:19:25.116Z,2.30
2022-10-13T08:21:58.351Z,4.22
2022-10-13T08:24:27.043Z,3.25
2022-10-13T08:26:53.580Z,2.70
2022-10-13T08:29:22.920Z,2.43
2022-10-13T08:31:51.742Z,2.60
2022-10-13T08:34:18.491Z,3.13
2022-10-13T08:36:45.059Z,2.90
2022-10-13T08:39:12.046Z,3.22
2022-10-13T08:41:42.183Z,3.70
2022-10-13T08:47:18.139Z,2.17
2022-10-13T08:49:44.968Z,1.67
2022-10-13T08:52:29.611Z,3.75
2022-10-13T08:54:56.745Z,3.50
2022-10-13T08:57:24.270Z,3.10
2022-10-13T08:59:52.464Z,3.40
2022-10-13T09:02:26.365Z,2.20
2022-10-13T09:04:53.565Z,3.17
2022-10-13T09:07:34.596Z,3.07
2022-10-13T09:10:01.101Z,3.53
2022-10-13T09:12:27.677Z,1.92
2022-10-13T09:15:01.653Z,2.60
2022-10-13T09:17:29.017Z,4.28
2022-10-13T09:19:59.983Z,2.23
2022-10-13T09:22:33.252Z,1.27
2022-10-13T09:25:10.212Z,1.48
2022-10-13T09:27:47.696Z,1.00
2022-10-13T09:30:33.495Z,1.58
2022-10-13T09:33:08.973Z,1.27
2022-10-13T09:35:49.790Z,1.23
2022-10-13T09:38:23.150Z,1.25
2022-10-13T09:41:08.856Z,1.30
2022-10-13T09:43:47.326Z,0.90
2022-10-13T09:46:23.377Z,0.97
2022-10-13T09:49:03.687Z,1.30
2022-10-13T09:51:37.196Z,0.77
2022-10-13T09:54:04.926Z,1.05
2022-10-13T09:56:43.882Z,0.98
2022-10-13T09:59:39.787Z,0.70
2022-10-13T10:02:33.856Z,1.10
2022-10-13T10:05:06.906Z,0.80
2022-10-13T10:07:33.802Z,0.98
2022-10-13T10:10:06.461Z,0.80
2022-10-13T10:12:35.964Z,1.30
2022-10-13T10:15:02.669Z,1.02
2022-10-13T10:17:52.083Z,1.42
2022-10-13T10:20:33.452Z,1.10
2022-10-13T10:23:13.173Z,1.17
2022-10-13T10:25:48.969Z,1.70
2022-10-13T10:28:34.257Z,1.35
2022-10-13T10:31:23.599Z,1.15
2022-10-13T10:34:14.838Z,1.00
2022-10-13T10:36:57.209Z,2.72
2022-10-13T10:39:39.011Z,1.17
2022-10-13T10:42:38.622Z,1.58
2022-10-13T10:45:16.090Z,1.40
2022-10-13T10:47:46.590Z,1.42
2022-10-13T10:50:17.033Z,1.90
2022-10-13T10:52:58.574Z,1.50
2022-10-13T10:55:49.809Z,1.98
2022-10-13T10:58:39.649Z,1.60
2022-10-13T11:01:12.143Z,1.42
2022-10-13T11:03:47.504Z,1.10
2022-10-13T11:06:17.009Z,2.10
2022-10-13T11:08:46.412Z,2.20
2022-10-13T11:11:28.659Z,2.38
2022-10-13T11:14:19.145Z,1.75
2022-10-13T11:16:58.018Z,1.75
2022-10-13T11:19:35.420Z,3.13
2022-10-13T11:22:01.878Z,4.80
2022-10-13T11:24:34.364Z,6.05
2022-10-13T11:27:16.169Z,4.50
2022-10-13T11:29:45.592Z,3.13
2022-10-13T11:32:30.562Z,2.03
2022-10-13T11:35:05.931Z,1.30
2022-10-13T11:38:05.924Z,1.23
2022-10-13T11:41:06.024Z,1.50
2022-10-13T11:43:50.542Z,2.97
2022-10-13T11:46:23.140Z,2.43
2022-10-13T11:49:18.176Z,2.53
2022-10-13T11:51:49.695Z,2.90
2022-10-13T11:54:36.755Z,3.00
2022-10-13T11:57:03.259Z,2.58
2022-10-13T11:59:35.643Z,3.17
2022-10-13T12:02:11.075Z,2.75
2022-10-13T12:04:45.525Z,2.15
2022-10-13T12:07:16.023Z,1.63
2022-10-13T12:09:57.095Z,2.63
2022-10-13T12:12:24.751Z,2.70
2022-10-13T12:14:57.764Z,1.83
2022-10-13T12:17:26.949Z,2.03
2022-10-13T12:19:59.299Z,1.70
2022-10-13T12:22:27.623Z,2.22
2022-10-13T12:25:06.087Z,2.10
2022-10-13T12:27:44.882Z,2.50
2022-10-13T12:30:30.666Z,2.95
2022-10-13T12:32:59.674Z,2.83
2022-10-13T12:35:29.701Z,2.80
2022-10-13T12:37:57.742Z,2.10
2022-10-13T12:40:25.243Z,1.30
2022-10-13T12:42:52.049Z,1.33
2022-10-13T12:45:21.644Z,1.10
2022-10-13T12:47:51.586Z,1.00
2022-10-13T12:50:27.220Z,1.13
2022-10-13T12:52:56.887Z,1.20
2022-10-13T12:55:23.449Z,1.35
2022-10-13T12:57:51.863Z,1.27
2022-10-13T13:00:27.002Z,1.50
2022-10-13T13:02:57.759Z,1.50
2022-10-13T13:05:30.496Z,1.15
2022-10-13T13:07:57.632Z,1.10
2022-10-13T13:10:24.362Z,1.13
2022-10-13T13:12:52.244Z,1.50
2022-10-13T13:15:24.835Z,1.20
2022-10-13T13:17:58.333Z,1.58
2022-10-13T13:20:34.192Z,1.42
2022-10-13T13:23:01.187Z,1.33
2022-10-13T13:25:27.790Z,2.20
2022-10-13T13:27:54.705Z,2.38
2022-10-13T13:30:23.491Z,2.63
2022-10-13T13:32:50.560Z,2.65
2022-10-13T13:35:17.381Z,2.75
2022-10-13T13:37:46.981Z,3.08
2022-10-13T13:40:31.664Z,3.63
2022-10-13T13:42:58.135Z,3.58
2022-10-13T13:45:24.808Z,3.20
2022-10-13T13:47:51.391Z,3.70
2022-10-13T13:50:26.462Z,3.17
2022-10-13T13:52:53.116Z,2.80
2022-10-13T13:55:19.844Z,3.22
2022-10-13T13:57:46.304Z,3.63
2022-10-13T14:00:14.476Z,3.97
2022-10-13T14:02:41.828Z,4.57
2022-10-13T14:05:08.606Z,4.43
2022-10-13T14:07:35.198Z,4.70
2022-10-13T14:10:02.494Z,4.50
2022-10-13T14:12:33.179Z,4.72
2022-10-13T14:14:59.895Z,6.38
2022-10-13T14:17:27.589Z,6.22
2022-10-13T14:19:54.325Z,6.45
2022-10-13T14:22:22.146Z,7.40
2022-10-13T14:24:48.959Z,8.50
2022-10-13T14:27:15.462Z,10.88
2022-10-13T14:29:41.995Z,11.57
2022-10-13T14:32:08.763Z,11.38
2022-10-13T14:34:35.346Z,9.10
2022-10-13T14:37:01.870Z,8.73
2022-10-13T14:39:28.327Z,9.02
2022-10-13T14:41:54.785Z,9.50
2022-10-13T14:44:21.312Z,8.63
2022-10-13T14:46:47.790Z,8.60
2022-10-13T14:49:14.280Z,6.03
2022-10-13T14:51:40.813Z,6.65
2022-10-13T14:54:07.271Z,6.10
2022-10-13T14:56:33.914Z,8.13
2022-10-13T14:59:02.477Z,8.07
2022-10-13T15:01:29.262Z,7.40
2022-10-13T15:03:55.923Z,8.38
2022-10-13T15:06:26.381Z,6.65
2022-10-13T15:08:53.053Z,4.95
2022-10-13T15:11:21.145Z,3.17
2022-10-13T15:13:47.800Z,3.03
2022-10-13T15:16:20.468Z,4.00
2022-10-13T15:18:47.376Z,6.45
2022-10-13T15:21:14.368Z,5.45
2022-10-13T15:23:41.457Z,3.65
2022-10-13T15:26:08.010Z,3.33
2022-10-13T15:28:37.428Z,3.05
2022-10-13T15:31:04.543Z,2.00
2022-10-13T15:33:31.484Z,1.55
2022-10-13T15:35:58.588Z,1.20
2022-10-13T15:38:25.551Z,0.77
2022-10-13T15:40:52.656Z,0.95
2022-10-13T15:43:19.651Z,0.80
2022-10-13T15:46:00.591Z,0.77
2022-10-13T15:48:27.300Z,0.80
2022-10-13T15:50:53.817Z,2.10
2022-10-13T15:53:20.505Z,2.15
2022-10-13T15:55:48.511Z,1.80
2022-10-13T15:58:15.447Z,1.90
2022-10-13T16:00:42.438Z,1.98
2022-10-13T16:03:14.574Z,1.92
2022-10-13T16:05:42.268Z,2.58
2022-10-13T16:08:08.845Z,2.22
2022-10-13T16:10:35.413Z,2.80
2022-10-13T16:13:01.888Z,2.92
2022-10-13T16:15:28.371Z,3.20
2022-10-13T16:17:54.957Z,2.67
2022-10-13T16:20:21.404Z,2.90
2022-10-13T16:22:47.883Z,2.67
2022-10-13T16:25:14.541Z,2.60
2022-10-13T16:27:44.315Z,2.40
2022-10-13T16:30:11.839Z,2.60
2022-10-13T16:32:39.457Z,3.83
2022-10-13T16:35:07.297Z,4.40
2022-10-13T16:37:33.973Z,5.15
2022-10-13T16:40:00.589Z,5.85
2022-10-13T16:42:27.068Z,7.00
2022-10-13T16:44:53.544Z,5.97
2022-10-13T16:47:20.385Z,6.03
2022-10-13T16:49:47.044Z,6.22
2022-10-13T16:52:13.524Z,4.47
2022-10-13T16:54:40.041Z,4.10
2022-10-13T16:57:06.519Z,5.28
2022-10-13T16:59:32.989Z,3.90
2022-10-13T17:01:59.504Z,4.25
2022-10-13T17:04:26.107Z,4.03
2022-10-13T17:06:52.618Z,4.20
2022-10-13T17:09:19.426Z,3.78
2022-10-13T17:11:45.911Z,3.85
2022-10-13T17:14:12.450Z,4.22
2022-10-13T17:16:38.996Z,3.78
2022-10-13T17:19:05.480Z,3.78
2022-10-13T17:21:32.136Z,4.55
2022-10-13T17:23:58.664Z,4.50
2022-10-13T17:26:25.258Z,4.82
2022-10-13T17:28:51.817Z,5.97
2022-10-13T17:31:21.471Z,5.60
2022-10-13T17:33:49.045Z,5.88
2022-10-13T17:36:29.270Z,6.05
2022-10-13T17:39:01.403Z,12.90
2022-10-13T17:41:27.872Z,5.93
2022-10-13T17:43:54.400Z,6.05
2022-10-13T17:46:36.092Z,5.90
2022-10-13T17:49:04.793Z,4.70
2022-10-13T17:51:31.306Z,4.32
2022-10-13T17:53:58.987Z,4.68
2022-10-13T17:56:26.138Z,4.50
2022-10-13T17:58:52.819Z,3.15
2022-10-13T18:01:22.301Z,5.63
2022-10-13T18:03:56.980Z,2.80
2022-10-13T18:06:23.956Z,4.78
2022-10-13T18:08:50.675Z,4.50
2022-10-13T18:11:19.804Z,2.47
2022-10-13T18:13:46.831Z,2.60
2022-10-13T18:16:21.823Z,2.17
2022-10-13T18:18:49.615Z,3.25
2022-10-13T18:21:18.165Z,2.92
2022-10-13T18:23:45.059Z,2.72
2022-10-13T18:26:14.230Z,3.85
2022-10-13T18:28:42.535Z,3.63
2022-10-13T18:31:12.283Z,3.33
2022-10-13T18:33:39.348Z,3.80
2022-10-13T18:36:28.707Z,4.35
2022-10-13T18:39:00.638Z,4.03
2022-10-13T18:41:27.277Z,3.67
2022-10-13T18:43:54.517Z,5.07
2022-10-13T18:46:20.956Z,3.60
2022-10-13T18:48:47.860Z,4.13
2022-10-13T18:51:16.661Z,5.50
2022-10-13T18:53:44.976Z,5.55
2022-10-13T18:56:20.523Z,5.18
2022-10-13T18:58:47.853Z,5.60
2022-10-13T19:01:17.932Z,5.78
2022-10-13T19:03:44.587Z,3.80
2022-10-13T19:06:13.147Z,4.30
2022-10-13T19:08:39.671Z,4.90
2022-10-13T19:11:20.820Z,4.40
2022-10-13T19:13:48.423Z,3.42
2022-10-13T19:16:18.572Z,3.58
2022-10-13T19:18:45.377Z,3.45
2022-10-13T19:21:12.420Z,3.75
2022-10-13T19:23:39.777Z,3.37
2022-10-13T19:26:18.185Z,3.55
2022-10-13T19:28:44.773Z,4.60
2022-10-13T19:31:14.795Z,4.90
2022-10-13T19:33:44.720Z,4.32
2022-10-13T19:36:19.216Z,4.20
2022-10-13T19:38:45.723Z,3.40
2022-10-13T19:41:12.507Z,4.00
2022-10-13T19:43:39.004Z,6.53
2022-10-13T19:46:07.446Z,6.75
2022-10-13T19:48:34.522Z,6.73
2022-10-13T19:51:02.288Z,6.40
2022-10-13T19:53:28.866Z,5.55
2022-10-13T19:55:55.342Z,10.32
2022-10-13T19:58:21.795Z,6.43
2022-10-13T20:00:48.446Z,6.33
2022-10-13T20:03:15.351Z,5.63
2022-10-13T20:05:42.511Z,8.15
2022-10-13T20:08:11.156Z,8.25
2022-10-13T20:10:38.909Z,8.43
2022-10-13T20:13:05.907Z,9.97
2022-10-13T20:15:32.611Z,11.60
2022-10-13T20:17:59.125Z,9.25
2022-10-13T20:20:25.759Z,9.38
2022-10-13T20:22:52.324Z,9.65
2022-10-13T20:25:18.824Z,9.53
2022-10-13T20:27:46.354Z,8.65
2022-10-13T20:30:13.422Z,9.10
2022-10-13T20:32:40.185Z,12.55
2022-10-13T20:35:06.987Z,10.02
2022-10-13T20:37:33.607Z,9.73
2022-10-13T20:40:00.125Z,12.48
2022-10-13T20:42:26.701Z,12.68
2022-10-13T20:44:53.313Z,11.10
2022-10-13T20:47:20.037Z,12.45
2022-10-13T20:49:46.680Z,12.13
2022-10-13T20:52:13.259Z,12.00
2022-10-13T20:54:39.752Z,13.25
2022-10-13T20:57:06.240Z,12.30
2022-10-13T20:59:32.760Z,12.02
2022-10-13T21:01:59.223Z,12.10
2022-10-13T21:04:25.793Z,11.50
2022-10-13T21:06:52.328Z,9.48
2022-10-13T21:09:18.869Z,8.40
2022-10-13T21:11:45.333Z,9.25
2022-10-13T21:14:11.960Z,8.37
2022-10-13T21:16:38.692Z,9.23
2022-10-13T21:19:05.225Z,8.27
2022-10-13T21:21:33.514Z,7.97
2022-10-13T21:24:02.962Z,8.05
2022-10-13T21:26:30.951Z,7.93
2022-10-13T21:28:57.996Z,7.30
2022-10-13T21:31:25.526Z,7.93
2022-10-13T21:33:52.686Z,8.00
2022-10-13T21:36:22.756Z,7.97
2022-10-13T21:38:52.748Z,7.50
2022-10-13T21:41:19.615Z,7.95
2022-10-13T21:43:46.623Z,7.75
2022-10-13T21:46:14.615Z,7.55
2022-10-13T21:48:41.700Z,9.00
2022-10-13T21:51:15.019Z,8.52
2022-10-13T21:53:41.659Z,9.38
2022-10-13T21:56:10.142Z,8.32
2022-10-13T21:58:36.702Z,8.45
2022-10-13T22:01:04.361Z,7.38
2022-10-13T22:03:31.047Z,8.25
2022-10-13T22:05:57.576Z,8.25
2022-10-13T22:08:37.507Z,8.00
2022-10-13T22:11:07.216Z,6.97
2022-10-13T22:13:33.931Z,6.00
2022-10-13T22:16:07.052Z,6.57
2022-10-13T22:18:33.627Z,5.88
2022-10-13T22:21:05.316Z,6.63
2022-10-13T22:23:32.035Z,7.85
2022-10-13T22:25:58.612Z,8.65
2022-10-13T22:28:25.530Z,7.88
2022-10-13T22:30:52.587Z,7.60
2022-10-13T22:33:19.621Z,7.63
2022-10-13T22:35:46.376Z,7.15
2022-10-13T22:38:13.892Z,6.03
2022-10-13T22:40:41.097Z,6.35
2022-10-13T22:43:08.563Z,6.85
2022-10-13T22:45:35.119Z,6.00
2022-10-13T22:48:01.781Z,6.80
2022-10-13T22:50:28.260Z,7.20
2022-10-13T22:52:54.761Z,6.85
2022-10-13T22:55:21.349Z,7.57
2022-10-13T22:57:47.805Z,7.53
2022-10-13T23:00:14.825Z,7.03
2022-10-13T23:02:41.408Z,7.60
2022-10-13T23:05:08.379Z,6.88
2022-10-13T23:07:34.836Z,7.15
2022-10-13T23:10:01.633Z,7.35
2022-10-13T23:12:28.113Z,7.00
2022-10-13T23:14:54.596Z,7.68
2022-10-13T23:17:21.276Z,7.65
2022-10-13T23:19:47.868Z,6.65
2022-10-13T23:22:14.338Z,7.15
2022-10-13T23:24:40.861Z,7.57
2022-10-13T23:27:07.339Z,7.00
2022-10-13T23:29:33.814Z,7.18
2022-10-13T23:32:00.401Z,7.28
2022-10-13T23:34:26.851Z,7.18
2022-10-13T23:36:53.399Z,7.82
2022-10-13T23:39:20.128Z,7.65
2022-10-13T23:41:46.595Z,6.73
2022-10-13T23:44:13.076Z,7.97
2022-10-13T23:46:39.595Z,8.68
2022-10-13T23:49:06.090Z,8.40
2022-10-13T23:51:32.572Z,7.32
2022-10-13T23:53:59.085Z,7.23
2022-10-13T23:56:25.567Z,8.15
2022-10-13T23:58:52.104Z,10.45
